createdAt,value
2019-02-25T00:00:24.485Z,4.55
2019-02-25T00:02:52.825Z,4.52
2019-02-25T00:05:21.426Z,4.50
2019-02-25T00:07:49.769Z,4.48
2019-02-25T00:10:18.069Z,4.49
2019-02-25T00:12:46.377Z,4.52
2019-02-25T00:15:14.745Z,4.53
2019-02-25T00:17:43.137Z,4.51
2019-02-25T00:20:12.666Z,4.50
2019-02-25T00:22:40.941Z,4.49
2019-02-25T00:25:11.180Z,4.48
2019-02-25T00:27:39.557Z,4.51
2019-02-25T00:30:11.344Z,4.48
2019-02-25T00:32:39.658Z,4.43
2019-02-25T00:35:07.964Z,4.36
2019-02-25T00:37:36.553Z,4.31
2019-02-25T00:40:07.103Z,4.26
2019-02-25T00:42:35.421Z,4.23
2019-02-25T00:45:05.486Z,4.24
2019-02-25T00:47:34.094Z,4.28
2019-02-25T00:50:02.795Z,4.29
2019-02-25T00:52:31.078Z,4.29
2019-02-25T00:54:59.391Z,4.27
2019-02-25T00:57:27.955Z,4.28
2019-02-25T00:59:56.276Z,4.25
2019-02-25T01:02:24.580Z,4.20
2019-02-25T01:04:53.766Z,4.16
2019-02-25T01:07:22.363Z,4.14
2019-02-25T01:09:50.662Z,4.11
2019-02-25T01:12:18.958Z,4.03
2019-02-25T01:14:47.269Z,3.97
2019-02-25T01:17:15.966Z,3.96
2019-02-25T01:19:44.265Z,3.97
2019-02-25T01:22:12.609Z,3.95
2019-02-25T01:24:41.206Z,3.96
2019-02-25T01:27:10.067Z,3.97
2019-02-25T01:29:38.420Z,3.93
2019-02-25T01:32:07.055Z,3.91
2019-02-25T01:34:35.640Z,3.91
2019-02-25T01:37:04.028Z,3.92
2019-02-25T01:39:32.316Z,3.92
2019-02-25T01:42:00.871Z,3.91
2019-02-25T01:44:29.156Z,3.94
2019-02-25T01:46:57.481Z,3.94
2019-02-25T01:49:25.812Z,3.89
2019-02-25T01:51:54.118Z,3.82
2019-02-25T01:54:22.418Z,3.84
2019-02-25T01:56:50.705Z,3.82
2019-02-25T01:59:19.013Z,3.75
2019-02-25T02:01:47.317Z,3.71
2019-02-25T02:04:15.702Z,3.69
2019-02-25T02:06:44.262Z,3.69
2019-02-25T02:09:12.963Z,3.65
2019-02-25T02:11:41.264Z,3.60
2019-02-25T02:14:09.591Z,3.59
2019-02-25T02:16:37.890Z,3.61
2019-02-25T02:19:06.211Z,3.59
2019-02-25T02:21:34.559Z,3.56
2019-02-25T02:24:02.874Z,3.52
2019-02-25T02:26:31.202Z,3.50
2019-02-25T02:28:59.787Z,3.49
2019-02-25T02:31:28.111Z,3.47
2019-02-25T02:33:56.424Z,3.43
2019-02-25T02:36:24.739Z,3.41
2019-02-25T02:38:53.107Z,3.42
2019-02-25T02:41:21.392Z,3.43
2019-02-25T02:43:49.715Z,3.41
2019-02-25T02:46:23.891Z,3.37
2019-02-25T02:48:55.452Z,3.40
2019-02-25T02:51:23.737Z,3.48
2019-02-25T02:53:52.050Z,3.54
2019-02-25T02:56:20.656Z,3.56
2019-02-25T02:58:48.988Z,3.55
2019-02-25T03:01:17.602Z,3.54
2019-02-25T03:03:45.928Z,3.47
2019-02-25T03:06:14.223Z,3.37
2019-02-25T03:08:42.513Z,3.29
2019-02-25T03:11:11.128Z,3.26
2019-02-25T03:13:39.443Z,3.21
2019-02-25T03:16:07.743Z,3.15
2019-02-25T03:18:36.094Z,3.13
2019-02-25T03:21:04.394Z,3.08
2019-02-25T03:23:33.010Z,3.11
2019-02-25T03:26:01.312Z,3.10
2019-02-25T03:28:29.595Z,3.05
2019-02-25T03:30:57.899Z,3.01
2019-02-25T03:33:26.209Z,3.01
2019-02-25T03:35:54.525Z,3.02
2019-02-25T03:38:22.840Z,3.03
2019-02-25T03:40:51.136Z,3.03
2019-02-25T03:43:19.421Z,3.00
2019-02-25T03:45:47.751Z,2.98
2019-02-25T03:48:16.037Z,3.01
2019-02-25T03:50:44.334Z,2.99
2019-02-25T03:53:12.680Z,2.93
2019-02-25T03:55:40.944Z,2.91
2019-02-25T03:58:09.256Z,2.93
2019-02-25T04:00:37.541Z,2.93
2019-02-25T04:03:05.890Z,2.94
2019-02-25T04:05:34.186Z,2.92
2019-02-25T04:08:02.913Z,2.84
2019-02-25T04:10:31.195Z,2.77
2019-02-25T04:12:59.507Z,2.74
2019-02-25T04:15:29.796Z,2.74
2019-02-25T04:17:58.104Z,2.72
2019-02-25T04:20:26.436Z,2.71
2019-02-25T04:22:54.727Z,2.70
2019-02-25T04:25:23.138Z,2.71
2019-02-25T04:27:51.808Z,2.70
2019-02-25T04:30:20.086Z,2.66
2019-02-25T04:32:48.401Z,2.66
2019-02-25T04:35:16.721Z,2.66
2019-02-25T04:37:45.019Z,2.64
2019-02-25T04:40:14.024Z,2.55
2019-02-25T04:42:42.286Z,2.47
2019-02-25T04:45:13.134Z,2.46
2019-02-25T04:47:41.427Z,2.49
2019-02-25T04:50:11.084Z,2.56
2019-02-25T04:52:39.390Z,2.55
2019-02-25T04:55:10.408Z,2.49
2019-02-25T04:57:38.880Z,2.41
2019-02-25T05:00:12.832Z,2.37
2019-02-25T05:02:41.132Z,2.33
2019-02-25T05:05:09.788Z,2.33
2019-02-25T05:07:38.432Z,2.34
2019-02-25T05:10:10.677Z,2.36
2019-02-25T05:12:40.707Z,2.36
2019-02-25T05:15:11.223Z,2.31
2019-02-25T05:17:39.828Z,2.23
2019-02-25T05:20:08.799Z,2.19
2019-02-25T05:22:37.646Z,2.19
2019-02-25T05:25:08.551Z,2.22
2019-02-25T05:27:36.860Z,2.22
2019-02-25T05:30:08.864Z,2.22
2019-02-25T05:32:37.267Z,2.20
2019-02-25T05:35:07.941Z,2.12
2019-02-25T05:37:36.301Z,2.15
2019-02-25T05:40:07.263Z,2.23
2019-02-25T05:42:35.574Z,2.30
2019-02-25T05:45:04.550Z,2.34
2019-02-25T05:47:32.843Z,2.34
2019-02-25T05:50:01.148Z,2.35
2019-02-25T05:52:29.449Z,2.30
2019-02-25T05:54:57.759Z,2.21
2019-02-25T05:57:26.052Z,2.11
2019-02-25T05:59:54.398Z,2.08
2019-02-25T06:02:22.768Z,2.09
2019-02-25T06:04:51.097Z,2.08
2019-02-25T06:07:19.419Z,2.09
2019-02-25T06:09:47.743Z,2.04
2019-02-25T06:12:16.074Z,2.02
2019-02-25T06:14:44.383Z,2.04
2019-02-25T06:17:13.008Z,2.05
2019-02-25T06:19:41.345Z,2.04
2019-02-25T06:22:09.643Z,2.03
2019-02-25T06:24:37.945Z,2.05
2019-02-25T06:27:06.269Z,2.13
2019-02-25T06:29:34.565Z,2.17
2019-02-25T06:32:03.173Z,2.19
2019-02-25T06:34:32.066Z,2.18
2019-02-25T06:37:00.636Z,2.18
2019-02-25T06:39:28.941Z,2.19
2019-02-25T06:41:57.604Z,2.21
2019-02-25T06:44:25.908Z,2.23
2019-02-25T06:46:54.319Z,2.21
2019-02-25T06:49:22.639Z,2.17
2019-02-25T06:51:50.937Z,2.18
2019-02-25T06:54:19.245Z,2.22
2019-02-25T06:56:47.572Z,2.26
2019-02-25T06:59:18.218Z,2.33
2019-02-25T07:01:46.182Z,2.42
2019-02-25T07:04:25.307Z,2.48
2019-02-25T07:06:55.274Z,2.50
2019-02-25T07:09:25.651Z,2.52
2019-02-25T07:12:12.197Z,2.56
2019-02-25T07:14:42.147Z,2.60
2019-02-25T07:17:12.090Z,2.63
2019-02-25T07:19:42.036Z,2.68
2019-02-25T07:22:12.017Z,2.76
2019-02-25T07:24:41.965Z,2.86
2019-02-25T07:27:28.240Z,2.93
2019-02-25T07:30:14.390Z,3.02
2019-02-25T07:32:56.379Z,3.14
2019-02-25T07:35:29.275Z,3.23
2019-02-25T07:37:59.250Z,3.36
2019-02-25T07:40:35.081Z,3.44
2019-02-25T07:43:11.442Z,3.55
2019-02-25T07:45:46.848Z,3.62
2019-02-25T07:48:31.593Z,3.68
2019-02-25T07:51:19.808Z,3.80
2019-02-25T07:54:02.107Z,3.91
2019-02-25T07:56:43.957Z,4.03
2019-02-25T07:59:19.430Z,4.16
2019-02-25T08:01:52.056Z,4.26
2019-02-25T08:04:24.686Z,4.36
2019-02-25T08:07:06.481Z,4.41
2019-02-25T08:09:36.429Z,4.47
2019-02-25T08:12:06.743Z,4.55
2019-02-25T08:14:52.874Z,4.62
2019-02-25T08:17:25.993Z,4.65
2019-02-25T08:20:12.399Z,4.71
2019-02-25T08:22:44.775Z,4.80
2019-02-25T08:25:32.783Z,4.87
2019-02-25T08:28:18.946Z,4.90
2019-02-25T08:30:51.841Z,4.90
2019-02-25T08:33:30.924Z,4.95
2019-02-25T08:36:15.947Z,5.05
2019-02-25T08:38:52.155Z,5.15
2019-02-25T08:41:22.067Z,5.29
2019-02-25T08:44:00.772Z,5.40
2019-02-25T08:46:34.098Z,5.53
2019-02-25T08:49:06.829Z,5.65
2019-02-25T08:51:35.258Z,5.75
2019-02-25T08:54:03.589Z,5.85
2019-02-25T08:56:31.931Z,5.97
2019-02-25T08:59:00.225Z,6.05
2019-02-25T09:01:28.875Z,6.14
2019-02-25T09:03:57.361Z,6.23
2019-02-25T09:06:25.928Z,6.34
2019-02-25T09:08:54.319Z,6.45
2019-02-25T09:11:22.627Z,6.60
2019-02-25T09:13:50.987Z,6.73
2019-02-25T09:16:19.283Z,6.85
2019-02-25T09:18:48.294Z,6.96
2019-02-25T09:21:16.661Z,7.04
2019-02-25T09:23:44.971Z,7.15
2019-02-25T09:26:13.269Z,7.27
2019-02-25T09:28:41.846Z,7.36
2019-02-25T09:31:10.311Z,7.46
2019-02-25T09:33:38.598Z,7.54
2019-02-25T09:36:07.824Z,7.63
2019-02-25T09:38:36.120Z,7.75
2019-02-25T09:41:04.446Z,7.90
2019-02-25T09:43:32.728Z,8.02
2019-02-25T09:46:01.285Z,8.15
2019-02-25T09:48:29.573Z,8.25
2019-02-25T09:50:58.329Z,8.32
2019-02-25T09:53:26.613Z,8.39
2019-02-25T09:55:54.922Z,8.46
2019-02-25T09:58:23.532Z,8.52
2019-02-25T10:00:52.206Z,8.61
2019-02-25T10:03:20.498Z,8.75
2019-02-25T10:05:48.818Z,8.90
2019-02-25T10:08:17.115Z,9.07
2019-02-25T10:10:45.730Z,9.17
2019-02-25T10:13:15.594Z,9.25
2019-02-25T10:15:44.125Z,9.32
2019-02-25T10:18:12.529Z,9.45
2019-02-25T10:20:40.907Z,9.51
2019-02-25T10:23:09.676Z,9.57
2019-02-25T10:25:38.086Z,9.66
2019-02-25T10:28:06.374Z,9.84
2019-02-25T10:30:34.734Z,9.93
2019-02-25T10:33:03.040Z,10.03
2019-02-25T10:35:31.342Z,10.18
2019-02-25T10:38:01.074Z,10.29
2019-02-25T10:40:29.696Z,10.40
2019-02-25T10:42:58.228Z,10.57
2019-02-25T10:45:26.840Z,10.77
2019-02-25T10:47:58.408Z,10.94
2019-02-25T10:50:25.158Z,11.02
2019-02-25T10:53:03.008Z,11.08
2019-02-25T10:55:32.581Z,11.16
2019-02-25T10:58:02.056Z,11.23
2019-02-25T11:00:31.417Z,11.27
2019-02-25T11:02:59.993Z,11.32
2019-02-25T11:05:30.521Z,11.46
2019-02-25T11:07:59.319Z,11.53
2019-02-25T11:10:35.270Z,11.58
2019-02-25T11:13:04.305Z,11.66
2019-02-25T11:15:34.208Z,11.66
2019-02-25T11:18:02.535Z,11.78
2019-02-25T11:20:31.733Z,11.85
2019-02-25T11:23:01.165Z,11.87
2019-02-25T11:25:30.192Z,11.89
2019-02-25T11:27:58.534Z,11.99
2019-02-25T11:30:26.930Z,12.06
2019-02-25T11:32:56.270Z,12.34
2019-02-25T11:35:25.325Z,12.38
2019-02-25T11:37:56.380Z,12.40
2019-02-25T11:40:25.899Z,12.41
2019-02-25T11:42:54.104Z,12.46
2019-02-25T11:45:22.413Z,12.46
2019-02-25T11:47:50.701Z,12.51
2019-02-25T11:50:20.267Z,12.59
2019-02-25T11:52:48.603Z,12.63
2019-02-25T11:55:17.152Z,12.63
2019-02-25T11:57:45.518Z,12.65
2019-02-25T12:00:23.099Z,12.67
2019-02-25T12:02:51.519Z,12.70
2019-02-25T12:05:20.258Z,12.75
2019-02-25T12:07:48.581Z,12.84
2019-02-25T12:10:17.811Z,12.82
2019-02-25T12:12:46.203Z,12.89
2019-02-25T12:15:19.153Z,13.02
2019-02-25T12:17:47.410Z,13.07
2019-02-25T12:20:16.189Z,13.16
2019-02-25T12:22:44.585Z,13.16
2019-02-25T12:25:21.507Z,13.18
2019-02-25T12:27:49.829Z,13.29
2019-02-25T12:30:22.450Z,13.31
2019-02-25T12:32:50.776Z,13.37
2019-02-25T12:35:19.396Z,13.40
2019-02-25T12:37:47.889Z,13.43
2019-02-25T12:40:17.122Z,13.52
2019-02-25T12:42:45.473Z,13.66
2019-02-25T12:45:14.912Z,13.72
2019-02-25T12:47:43.215Z,13.77
2019-02-25T12:50:13.657Z,13.78
2019-02-25T12:52:42.025Z,13.78
2019-02-25T12:55:14.402Z,13.81
2019-02-25T12:57:42.779Z,13.88
2019-02-25T13:00:16.952Z,13.98
2019-02-25T13:02:45.241Z,13.97
2019-02-25T13:05:16.243Z,14.02
2019-02-25T13:07:44.548Z,14.05
2019-02-25T13:10:15.454Z,14.02
2019-02-25T13:12:43.745Z,13.96
2019-02-25T13:15:17.563Z,13.92
2019-02-25T13:17:45.853Z,13.89
2019-02-25T13:20:15.463Z,13.87
2019-02-25T13:22:43.776Z,13.85
2019-02-25T13:25:26.530Z,13.93
2019-02-25T13:27:56.434Z,14.03
2019-02-25T13:30:24.832Z,14.17
2019-02-25T13:32:53.454Z,14.30
2019-02-25T13:35:22.003Z,14.43
2019-02-25T13:37:50.313Z,14.45
2019-02-25T13:40:18.954Z,14.44
2019-02-25T13:42:47.293Z,14.37
2019-02-25T13:45:17.797Z,14.34
2019-02-25T13:47:46.118Z,14.31
2019-02-25T13:50:15.991Z,14.35
2019-02-25T13:52:48.540Z,14.41
2019-02-25T13:55:22.214Z,14.53
2019-02-25T13:57:50.567Z,14.60
2019-02-25T14:00:20.665Z,14.64
2019-02-25T14:02:49.671Z,14.66
2019-02-25T14:05:18.174Z,14.70
2019-02-25T14:07:46.496Z,14.71
2019-02-25T14:10:15.850Z,14.67
2019-02-25T14:12:44.168Z,14.71
2019-02-25T14:15:25.113Z,14.80
2019-02-25T14:17:53.587Z,14.94
2019-02-25T14:20:23.127Z,15.03
2019-02-25T14:22:51.449Z,15.11
2019-02-25T14:25:25.671Z,15.18
2019-02-25T14:27:54.263Z,15.21
2019-02-25T14:30:23.998Z,15.27
2019-02-25T14:32:53.394Z,15.27
2019-02-25T14:35:28.545Z,15.22
2019-02-25T14:38:02.838Z,15.20
2019-02-25T14:40:32.039Z,15.19
2019-02-25T14:42:59.986Z,15.20
2019-02-25T14:45:31.487Z,15.26
2019-02-25T14:47:59.883Z,15.27
2019-02-25T14:50:29.606Z,15.30
2019-02-25T14:52:57.988Z,15.28
2019-02-25T14:55:28.325Z,15.26
2019-02-25T14:57:59.961Z,15.22
2019-02-25T15:00:29.146Z,15.17
2019-02-25T15:02:58.084Z,15.14
2019-02-25T15:05:26.982Z,15.16
2019-02-25T15:07:55.389Z,15.16
2019-02-25T15:10:26.548Z,15.18
2019-02-25T15:12:56.546Z,15.19
2019-02-25T15:15:24.411Z,15.16
2019-02-25T15:17:52.893Z,15.13
2019-02-25T15:20:23.406Z,15.14
2019-02-25T15:22:52.415Z,15.17
2019-02-25T15:25:21.211Z,15.21
2019-02-25T15:27:49.555Z,15.17
2019-02-25T15:30:30.712Z,15.17
2019-02-25T15:32:59.620Z,15.13
2019-02-25T15:35:31.835Z,15.06
2019-02-25T15:38:00.323Z,15.05
2019-02-25T15:40:29.038Z,15.01
2019-02-25T15:43:02.446Z,14.98
2019-02-25T15:45:35.005Z,14.93
2019-02-25T15:48:03.499Z,14.93
2019-02-25T15:50:31.836Z,14.92
2019-02-25T15:53:03.315Z,14.88
2019-02-25T15:55:31.522Z,14.82
2019-02-25T15:57:59.854Z,14.78
2019-02-25T16:00:30.011Z,14.76
2019-02-25T16:02:58.720Z,14.73
2019-02-25T16:05:29.567Z,14.70
2019-02-25T16:08:00.044Z,14.66
2019-02-25T16:10:28.820Z,14.62
2019-02-25T16:12:57.863Z,14.58
2019-02-25T16:15:27.321Z,14.56
2019-02-25T16:17:55.655Z,14.54
2019-02-25T16:20:26.636Z,14.49
2019-02-25T16:22:56.583Z,14.44
2019-02-25T16:25:27.544Z,14.38
2019-02-25T16:27:56.903Z,14.30
2019-02-25T16:30:26.341Z,14.21
2019-02-25T16:32:55.589Z,14.17
2019-02-25T16:35:23.900Z,14.15
2019-02-25T16:37:53.054Z,14.11
2019-02-25T16:40:24.412Z,14.04
2019-02-25T16:42:55.003Z,13.97
2019-02-25T16:45:32.418Z,13.95
2019-02-25T16:47:57.100Z,13.90
2019-02-25T16:50:25.496Z,13.84
2019-02-25T16:52:53.767Z,13.76
2019-02-25T16:55:27.765Z,13.67
2019-02-25T16:57:56.107Z,13.58
2019-02-25T17:00:29.883Z,13.52
2019-02-25T17:03:01.387Z,13.41
2019-02-25T17:05:28.302Z,13.23
2019-02-25T17:07:56.866Z,13.04
2019-02-25T17:10:29.140Z,12.87
2019-02-25T17:12:57.044Z,12.70
2019-02-25T17:15:26.982Z,12.57
2019-02-25T17:17:58.330Z,12.40
2019-02-25T17:20:27.824Z,12.21
2019-02-25T17:22:55.692Z,12.05
2019-02-25T17:25:26.898Z,11.90
2019-02-25T17:27:54.064Z,11.75
2019-02-25T17:30:24.132Z,11.62
2019-02-25T17:32:54.880Z,11.53
2019-02-25T17:35:25.806Z,11.47
2019-02-25T17:37:55.516Z,11.40
2019-02-25T17:40:23.907Z,11.27
2019-02-25T17:42:54.017Z,11.14
2019-02-25T17:45:25.110Z,11.06
2019-02-25T17:47:58.275Z,10.98
2019-02-25T17:50:24.352Z,10.92
2019-02-25T17:52:52.958Z,10.87
2019-02-25T17:55:27.261Z,10.81
2019-02-25T17:57:58.587Z,10.74
2019-02-25T18:00:44.705Z,10.69
2019-02-25T18:03:14.942Z,10.59
2019-02-25T18:05:43.451Z,10.48
2019-02-25T18:08:13.336Z,10.39
2019-02-25T18:10:43.126Z,10.31
2019-02-25T18:13:12.336Z,10.25
2019-02-25T18:15:40.947Z,10.16
2019-02-25T18:18:12.011Z,10.07
2019-02-25T18:20:39.470Z,10.00
2019-02-25T18:23:08.241Z,9.97
2019-02-25T18:25:37.673Z,9.93
2019-02-25T18:28:08.477Z,9.90
2019-02-25T18:30:37.726Z,9.83
2019-02-25T18:33:06.392Z,9.78
2019-02-25T18:35:36.872Z,9.76
2019-02-25T18:38:07.246Z,9.79
2019-02-25T18:40:36.480Z,9.73
2019-02-25T18:43:06.791Z,9.64
2019-02-25T18:45:37.826Z,9.54
2019-02-25T18:48:06.481Z,9.47
2019-02-25T18:50:35.051Z,9.41
2019-02-25T18:53:03.821Z,9.36
2019-02-25T18:55:34.186Z,9.30
2019-02-25T18:58:02.313Z,9.23
2019-02-25T19:00:37.446Z,9.16
2019-02-25T19:03:06.781Z,9.07
2019-02-25T19:05:35.259Z,8.96
2019-02-25T19:08:12.015Z,8.92
2019-02-25T19:10:41.284Z,8.87
2019-02-25T19:13:08.089Z,8.82
2019-02-25T19:15:37.372Z,8.74
2019-02-25T19:18:06.936Z,8.71
2019-02-25T19:20:36.740Z,8.68
2019-02-25T19:23:09.467Z,8.65
2019-02-25T19:25:36.809Z,8.59
2019-02-25T19:28:05.646Z,8.55
2019-02-25T19:30:34.515Z,8.54
2019-02-25T19:33:10.959Z,8.50
2019-02-25T19:35:35.413Z,8.49
2019-02-25T19:38:05.837Z,8.46
2019-02-25T19:40:33.955Z,8.40
2019-02-25T19:43:04.281Z,8.35
2019-02-25T19:45:33.878Z,8.27
2019-02-25T19:48:04.747Z,8.20
2019-02-25T19:50:34.692Z,8.13
2019-02-25T19:53:05.242Z,8.05
2019-02-25T19:55:33.966Z,7.96
2019-02-25T19:58:03.703Z,7.89
2019-02-25T20:00:33.884Z,7.83
2019-02-25T20:03:05.754Z,7.79
2019-02-25T20:05:33.377Z,7.78
2019-02-25T20:08:01.836Z,7.78
2019-02-25T20:10:30.857Z,7.75
2019-02-25T20:12:59.351Z,7.72
2019-02-25T20:15:27.653Z,7.67
2019-02-25T20:17:55.945Z,7.62
2019-02-25T20:20:25.964Z,7.58
2019-02-25T20:22:54.278Z,7.58
2019-02-25T20:25:25.849Z,7.59
2019-02-25T20:27:54.976Z,7.59
2019-02-25T20:30:24.118Z,7.53
2019-02-25T20:32:53.819Z,7.48
2019-02-25T20:35:24.360Z,7.41
2019-02-25T20:37:53.756Z,7.37
2019-02-25T20:40:24.145Z,7.34
2019-02-25T20:42:53.564Z,7.31
2019-02-25T20:45:30.037Z,7.31
2019-02-25T20:47:59.644Z,7.26
2019-02-25T20:50:28.015Z,7.22
2019-02-25T20:52:59.140Z,7.15
2019-02-25T20:57:19.826Z,7.18
2019-02-25T20:59:48.815Z,7.16
2019-02-25T21:02:18.799Z,7.20
2019-02-25T21:04:50.122Z,7.25
2019-02-25T21:07:18.176Z,7.27
2019-02-25T21:09:46.498Z,7.26
2019-02-25T21:12:15.790Z,7.24
2019-02-25T21:14:45.109Z,7.20
2019-02-25T21:17:13.443Z,7.09
2019-02-25T21:19:43.838Z,6.99
2019-02-25T21:22:11.777Z,6.88
2019-02-25T21:24:40.082Z,6.78
2019-02-25T21:27:10.441Z,6.76
2019-02-25T21:29:41.078Z,6.77
2019-02-25T21:32:12.764Z,6.76
2019-02-25T21:34:38.955Z,6.76
2019-02-25T21:37:07.247Z,6.72
2019-02-25T21:39:36.601Z,6.67
2019-02-25T21:42:06.420Z,6.56
2019-02-25T21:44:36.424Z,6.49
2019-02-25T21:47:06.330Z,6.46
2019-02-25T21:49:36.597Z,6.46
2019-02-25T21:52:06.255Z,6.49
2019-02-25T21:54:35.882Z,6.53
2019-02-25T21:57:05.398Z,6.50
2019-02-25T21:59:36.507Z,6.44
2019-02-25T22:02:04.536Z,6.33
2019-02-25T22:04:32.846Z,6.26
2019-02-25T22:07:02.541Z,6.24
2019-02-25T22:09:39.096Z,6.26
2019-02-25T22:12:01.090Z,6.29
2019-02-25T22:14:29.415Z,6.25
2019-02-25T22:16:58.852Z,6.21
2019-02-25T22:19:27.741Z,6.15
2019-02-25T22:21:58.056Z,6.09
2019-02-25T22:24:29.100Z,6.04
2019-02-25T22:26:57.947Z,6.03
2019-02-25T22:29:26.491Z,5.97
2019-02-25T22:31:54.802Z,5.93
2019-02-25T22:34:25.266Z,5.94
2019-02-25T22:36:55.823Z,5.97
2019-02-25T22:39:25.135Z,5.96
2019-02-25T22:41:54.108Z,5.89
2019-02-25T22:44:23.092Z,5.86
2019-02-25T22:46:52.722Z,5.84
2019-02-25T22:49:22.096Z,5.81
2019-02-25T22:51:51.919Z,5.76
2019-02-25T22:54:21.585Z,5.75
2019-02-25T22:56:49.941Z,5.73
2019-02-25T22:59:20.754Z,5.70
2019-02-25T23:01:52.071Z,5.71
2019-02-25T23:04:19.686Z,5.67
2019-02-25T23:06:49.696Z,5.68
2019-02-25T23:09:21.236Z,5.71
2019-02-25T23:11:50.563Z,5.75
2019-02-25T23:14:19.120Z,5.74
2019-02-25T23:16:47.932Z,5.73
2019-02-25T23:19:18.015Z,5.68
2019-02-25T23:21:46.315Z,5.66
2019-02-25T23:24:14.624Z,5.62
2019-02-25T23:26:42.926Z,5.56
2019-02-25T23:29:11.529Z,5.51
2019-02-25T23:31:39.842Z,5.49
2019-02-25T23:34:10.294Z,5.44
2019-02-25T23:36:40.896Z,5.38
2019-02-25T23:39:08.537Z,5.32
2019-02-25T23:41:38.980Z,5.34
2019-02-25T23:44:08.664Z,5.36
2019-02-25T23:46:37.866Z,5.31
2019-02-25T23:49:06.912Z,5.26
2019-02-25T23:51:37.184Z,5.25
2019-02-25T23:54:05.243Z,5.23
2019-02-25T23:56:33.855Z,5.21
2019-02-25T23:59:02.142Z,5.20
